createdAt,value
2018-01-30T00:00:39.323Z,7.76
2018-01-30T00:01:39.226Z,7.77
2018-01-30T00:02:39.078Z,7.78
2018-01-30T00:03:39.173Z,7.78
2018-01-30T00:04:39.171Z,7.77
2018-01-30T00:05:39.256Z,7.77
2018-01-30T00:06:40.155Z,7.76
2018-01-30T00:07:39.390Z,7.78
2018-01-30T00:08:40.048Z,7.77
2018-01-30T00:09:39.922Z,7.78
2018-01-30T00:10:39.525Z,7.76
2018-01-30T00:11:39.092Z,7.78
2018-01-30T00:12:39.622Z,7.79
2018-01-30T00:13:39.276Z,7.78
2018-01-30T00:14:39.267Z,7.78
2018-01-30T00:15:39.085Z,7.77
2018-01-30T00:16:39.865Z,7.81
2018-01-30T00:17:39.380Z,7.84
2018-01-30T00:18:39.201Z,7.83
2018-01-30T00:19:39.406Z,7.86
2018-01-30T00:20:39.317Z,7.84
2018-01-30T00:21:39.631Z,7.85
2018-01-30T00:22:39.293Z,7.86
2018-01-30T00:23:39.206Z,7.86
2018-01-30T00:24:39.241Z,7.86
2018-01-30T00:25:39.845Z,7.84
2018-01-30T00:26:39.802Z,7.82
2018-01-30T00:27:39.309Z,7.82
2018-01-30T00:28:39.052Z,7.83
2018-01-30T00:29:39.032Z,7.83
2018-01-30T00:30:39.097Z,7.82
2018-01-30T00:31:39.368Z,7.82
2018-01-30T00:32:39.136Z,7.81
2018-01-30T00:33:39.539Z,7.82
2018-01-30T00:34:39.251Z,7.81
2018-01-30T00:35:39.410Z,7.82
2018-01-30T00:36:39.356Z,7.81
2018-01-30T00:37:39.240Z,7.81
2018-01-30T00:38:39.205Z,7.83
2018-01-30T00:39:39.317Z,7.83
2018-01-30T00:40:39.416Z,7.82
2018-01-30T00:41:39.201Z,7.84
2018-01-30T00:42:39.240Z,7.84
2018-01-30T00:43:39.335Z,7.83
2018-01-30T00:44:39.240Z,7.82
2018-01-30T00:45:39.328Z,7.82
2018-01-30T00:46:39.152Z,7.84
2018-01-30T00:47:39.189Z,7.84
2018-01-30T00:48:39.256Z,7.84
2018-01-30T00:49:39.386Z,7.82
2018-01-30T00:50:39.340Z,7.81
2018-01-30T00:51:39.078Z,7.82
2018-01-30T00:52:39.608Z,7.83
2018-01-30T00:53:39.133Z,7.82
2018-01-30T00:54:39.141Z,7.82
2018-01-30T00:55:39.123Z,7.81
2018-01-30T00:56:39.345Z,7.82
2018-01-30T00:57:39.366Z,7.83
2018-01-30T00:58:39.418Z,7.81
2018-01-30T00:59:39.289Z,7.8
2018-01-30T01:00:39.387Z,7.79
2018-01-30T01:01:39.836Z,7.83
2018-01-30T01:02:39.167Z,7.8
2018-01-30T01:03:39.106Z,7.82
2018-01-30T01:04:39.063Z,7.82
2018-01-30T01:05:39.481Z,7.81
2018-01-30T01:06:39.409Z,7.83
2018-01-30T01:07:39.434Z,7.82
2018-01-30T01:08:39.126Z,7.82
2018-01-30T01:09:39.060Z,7.82
2018-01-30T01:10:39.374Z,7.82
2018-01-30T01:11:39.337Z,7.82
2018-01-30T01:12:39.498Z,7.82
2018-01-30T01:13:39.723Z,7.82
2018-01-30T01:14:39.161Z,7.81
2018-01-30T01:15:39.413Z,7.81
2018-01-30T01:16:39.931Z,7.82
2018-01-30T01:17:39.347Z,7.82
2018-01-30T01:18:39.585Z,7.81
2018-01-30T01:19:39.233Z,7.82
2018-01-30T01:20:39.336Z,7.82
2018-01-30T01:21:39.124Z,7.82
2018-01-30T01:22:39.489Z,7.83
2018-01-30T01:23:39.663Z,7.82
2018-01-30T01:24:39.602Z,7.83
2018-01-30T01:25:39.439Z,7.82
2018-01-30T01:26:39.374Z,7.83
2018-01-30T01:27:39.285Z,7.83
2018-01-30T01:28:39.622Z,7.83
2018-01-30T01:29:39.731Z,7.83
2018-01-30T01:30:39.445Z,7.83
2018-01-30T01:31:39.530Z,7.84
2018-01-30T01:32:39.180Z,7.85
2018-01-30T01:33:40.270Z,7.83
2018-01-30T01:34:40.292Z,7.86
2018-01-30T01:35:40.208Z,7.82
2018-01-30T01:36:39.354Z,7.85
2018-01-30T01:37:39.217Z,7.85
2018-01-30T01:38:39.386Z,7.85
2018-01-30T01:39:39.702Z,7.87
2018-01-30T01:40:39.299Z,7.84
2018-01-30T01:41:39.228Z,7.84
2018-01-30T01:42:39.703Z,7.85
2018-01-30T01:43:39.322Z,7.88
2018-01-30T01:44:39.293Z,7.87
2018-01-30T01:45:39.424Z,7.87
2018-01-30T01:46:39.364Z,7.89
2018-01-30T01:47:40.277Z,7.88
2018-01-30T01:48:39.227Z,7.88
2018-01-30T01:49:39.840Z,7.9
2018-01-30T01:50:39.324Z,7.92
2018-01-30T01:51:39.559Z,7.95
2018-01-30T01:52:39.545Z,7.97
2018-01-30T01:53:39.306Z,7.98
2018-01-30T01:54:39.272Z,7.98
2018-01-30T01:55:39.454Z,8.01
2018-01-30T01:56:39.540Z,7.99
2018-01-30T01:57:39.144Z,8.01
2018-01-30T01:58:39.764Z,8.02
2018-01-30T01:59:39.160Z,8.03
2018-01-30T02:00:39.247Z,8.02
2018-01-30T02:01:39.545Z,8
2018-01-30T02:02:39.342Z,8
2018-01-30T02:03:40.069Z,8.01
2018-01-30T02:04:39.290Z,7.99
2018-01-30T02:05:39.407Z,7.96
2018-01-30T02:06:39.492Z,7.94
2018-01-30T02:07:39.337Z,7.93
2018-01-30T02:08:39.370Z,7.91
2018-01-30T02:09:39.188Z,7.87
2018-01-30T02:10:39.284Z,7.86
2018-01-30T02:11:39.431Z,7.87
2018-01-30T02:12:39.299Z,7.85
2018-01-30T02:13:39.813Z,7.84
2018-01-30T02:14:39.230Z,7.87
2018-01-30T02:15:39.876Z,7.85
2018-01-30T02:16:39.639Z,7.86
2018-01-30T02:17:39.442Z,7.87
2018-01-30T02:18:39.027Z,7.9
2018-01-30T02:19:40.151Z,7.92
2018-01-30T02:20:39.329Z,7.93
2018-01-30T02:21:39.539Z,7.9
2018-01-30T02:22:39.800Z,7.92
2018-01-30T02:23:40.355Z,7.9
2018-01-30T02:24:39.570Z,7.9
2018-01-30T02:25:40.331Z,7.89
2018-01-30T02:26:39.239Z,7.88
2018-01-30T02:27:39.149Z,7.85
2018-01-30T02:28:39.671Z,7.84
2018-01-30T02:29:39.513Z,7.87
2018-01-30T02:30:39.245Z,7.87
2018-01-30T02:31:40.489Z,7.86
2018-01-30T02:32:39.373Z,7.9
2018-01-30T02:33:39.331Z,7.87
2018-01-30T02:34:39.769Z,7.87
2018-01-30T02:35:39.358Z,7.9
2018-01-30T02:36:39.484Z,7.91
2018-01-30T02:37:39.351Z,7.9
2018-01-30T02:38:39.888Z,7.88
2018-01-30T02:39:39.564Z,7.88
2018-01-30T02:40:39.309Z,7.89
2018-01-30T02:41:39.356Z,7.91
2018-01-30T02:42:39.750Z,7.92
2018-01-30T02:43:39.831Z,7.92
2018-01-30T02:44:39.320Z,7.89
2018-01-30T02:45:39.520Z,7.88
2018-01-30T02:46:39.587Z,7.9
2018-01-30T02:47:39.401Z,7.93
2018-01-30T02:48:39.388Z,7.91
2018-01-30T02:49:40.088Z,7.92
2018-01-30T02:50:39.706Z,7.9
2018-01-30T02:51:39.481Z,7.87
2018-01-30T02:52:39.458Z,7.91
2018-01-30T02:53:40.227Z,7.94
2018-01-30T02:54:40.370Z,7.91
2018-01-30T02:55:39.464Z,7.93
2018-01-30T02:56:39.668Z,7.89
2018-01-30T02:57:39.448Z,7.93
2018-01-30T02:58:39.603Z,7.94
2018-01-30T02:59:39.362Z,7.93
2018-01-30T03:00:39.274Z,7.94
2018-01-30T03:01:39.632Z,7.94
2018-01-30T03:02:40.197Z,7.95
2018-01-30T03:03:39.625Z,7.93
2018-01-30T03:04:39.437Z,7.94
2018-01-30T03:05:39.626Z,7.93
2018-01-30T03:06:39.415Z,7.91
2018-01-30T03:07:38.495Z,7.93
2018-01-30T03:08:38.488Z,7.93
2018-01-30T03:09:38.575Z,7.91
2018-01-30T03:10:38.468Z,7.92
2018-01-30T03:11:38.403Z,7.92
2018-01-30T03:12:38.643Z,7.92
2018-01-30T03:13:38.360Z,7.91
2018-01-30T03:14:38.779Z,7.89
2018-01-30T03:15:38.513Z,7.87
2018-01-30T03:16:38.783Z,7.81
2018-01-30T03:17:39.201Z,7.79
2018-01-30T03:18:38.858Z,7.77
2018-01-30T03:19:38.577Z,7.8
2018-01-30T03:20:38.509Z,7.77
2018-01-30T03:21:38.602Z,7.72
2018-01-30T03:22:38.407Z,7.72
2018-01-30T03:23:38.512Z,7.68
2018-01-30T03:24:38.510Z,7.72
2018-01-30T03:25:38.812Z,7.68
2018-01-30T03:26:38.352Z,7.65
2018-01-30T03:27:38.402Z,7.52
2018-01-30T03:28:38.591Z,7.36
2018-01-30T03:29:39.020Z,7.37
2018-01-30T03:30:38.379Z,7.23
2018-01-30T03:31:38.613Z,7.22
2018-01-30T03:32:38.256Z,7.19
2018-01-30T03:33:38.354Z,7.25
2018-01-30T03:34:38.323Z,7.21
2018-01-30T03:35:38.332Z,7.11
2018-01-30T03:36:38.299Z,7
2018-01-30T03:37:38.432Z,6.99
2018-01-30T03:38:38.323Z,7.05
2018-01-30T03:39:38.523Z,7.09
2018-01-30T03:40:38.468Z,7.01
2018-01-30T03:41:38.367Z,6.97
2018-01-30T03:42:38.282Z,7.06
2018-01-30T03:43:38.345Z,7.02
2018-01-30T03:44:38.364Z,7.03
2018-01-30T03:45:38.370Z,6.92
2018-01-30T03:46:38.378Z,6.92
2018-01-30T03:47:38.346Z,6.96
2018-01-30T03:48:38.411Z,6.96
2018-01-30T03:49:38.519Z,6.97
2018-01-30T03:50:38.327Z,6.92
2018-01-30T03:51:38.358Z,6.93
2018-01-30T03:52:38.374Z,6.91
2018-01-30T03:53:38.232Z,6.91
2018-01-30T03:54:38.318Z,6.89
2018-01-30T03:55:38.192Z,6.91
2018-01-30T03:56:38.443Z,6.93
2018-01-30T03:57:38.415Z,6.93
2018-01-30T03:58:38.460Z,6.95
2018-01-30T03:59:38.342Z,6.92
2018-01-30T04:00:38.404Z,7
2018-01-30T04:01:38.281Z,6.88
2018-01-30T04:02:38.434Z,6.92
2018-01-30T04:03:38.501Z,6.89
2018-01-30T04:04:38.429Z,6.95
2018-01-30T04:05:38.353Z,6.9
2018-01-30T04:06:38.342Z,6.85
2018-01-30T04:07:38.380Z,6.89
2018-01-30T04:08:38.492Z,6.91
2018-01-30T04:09:38.384Z,6.94
2018-01-30T04:10:38.380Z,6.92
2018-01-30T04:11:39.211Z,6.86
2018-01-30T04:12:38.498Z,6.83
2018-01-30T04:13:38.449Z,6.86
2018-01-30T04:14:38.556Z,6.86
2018-01-30T04:15:38.394Z,6.86
2018-01-30T04:16:38.336Z,6.93
2018-01-30T04:17:38.485Z,6.94
2018-01-30T04:18:38.464Z,6.9
2018-01-30T04:19:38.322Z,6.88
2018-01-30T04:20:38.462Z,6.92
2018-01-30T04:21:38.510Z,6.88
2018-01-30T04:22:38.329Z,6.85
2018-01-30T04:23:38.482Z,6.8
2018-01-30T04:24:38.353Z,6.82
2018-01-30T04:25:38.324Z,6.85
2018-01-30T04:26:38.367Z,6.91
2018-01-30T04:27:38.493Z,6.89
2018-01-30T04:28:38.470Z,6.88
2018-01-30T04:29:38.477Z,6.91
2018-01-30T04:30:38.484Z,6.93
2018-01-30T04:31:38.480Z,6.85
2018-01-30T04:32:38.484Z,6.91
2018-01-30T04:33:38.312Z,6.89
2018-01-30T04:34:38.485Z,6.79
2018-01-30T04:35:38.348Z,6.84
2018-01-30T04:36:38.307Z,6.82
2018-01-30T04:37:38.520Z,6.78
2018-01-30T04:38:38.365Z,6.75
2018-01-30T04:39:38.505Z,6.79
2018-01-30T04:40:38.425Z,6.82
2018-01-30T04:41:38.432Z,6.85
2018-01-30T04:42:38.591Z,6.82
2018-01-30T04:43:38.587Z,6.89
2018-01-30T04:44:38.575Z,6.87
2018-01-30T04:45:38.348Z,6.9
2018-01-30T04:46:38.504Z,6.81
2018-01-30T04:47:38.409Z,6.87
2018-01-30T04:48:38.356Z,6.9
2018-01-30T04:49:38.376Z,6.87
2018-01-30T04:50:38.544Z,6.88
2018-01-30T04:51:38.630Z,6.89
2018-01-30T04:52:38.389Z,6.88
2018-01-30T04:53:38.380Z,6.9
2018-01-30T04:54:38.341Z,6.88
2018-01-30T04:55:38.412Z,6.88
2018-01-30T04:56:38.541Z,6.77
2018-01-30T04:57:38.518Z,6.74
2018-01-30T04:58:38.513Z,6.73
2018-01-30T04:59:38.514Z,6.74
2018-01-30T05:00:38.480Z,6.79
2018-01-30T05:01:38.428Z,6.76
2018-01-30T05:02:38.338Z,6.73
2018-01-30T05:03:38.357Z,6.78
2018-01-30T05:04:38.563Z,6.72
2018-01-30T05:05:38.453Z,6.73
2018-01-30T05:06:38.534Z,6.76
2018-01-30T05:07:38.592Z,6.63
2018-01-30T05:08:38.422Z,6.67
2018-01-30T05:09:39.432Z,6.66
2018-01-30T05:10:38.550Z,6.67
2018-01-30T05:11:38.617Z,6.69
2018-01-30T05:12:38.518Z,6.7
2018-01-30T05:13:38.446Z,6.69
2018-01-30T05:14:38.538Z,6.71
2018-01-30T05:15:38.440Z,6.7
2018-01-30T05:16:38.525Z,6.7
2018-01-30T05:17:38.486Z,6.7
2018-01-30T05:18:38.503Z,6.7
2018-01-30T05:19:38.516Z,6.72
2018-01-30T05:20:38.479Z,6.74
2018-01-30T05:21:38.534Z,6.72
2018-01-30T05:22:38.470Z,6.72
2018-01-30T05:23:38.557Z,6.72
2018-01-30T05:24:38.370Z,6.72
2018-01-30T05:25:38.603Z,6.74
2018-01-30T05:26:38.497Z,6.72
2018-01-30T05:27:38.436Z,6.73
2018-01-30T05:28:38.616Z,6.72
2018-01-30T05:29:38.630Z,6.72
2018-01-30T05:30:38.531Z,6.71
2018-01-30T05:31:38.596Z,6.72
2018-01-30T05:32:38.539Z,6.71
2018-01-30T05:33:38.556Z,6.68
2018-01-30T05:34:38.448Z,6.68
2018-01-30T05:35:38.593Z,6.68
2018-01-30T05:36:38.411Z,6.69
2018-01-30T05:39:50.067Z,6.68
2018-01-30T05:40:38.992Z,6.65
2018-01-30T05:41:38.927Z,6.66
2018-01-30T05:42:39.006Z,6.65
2018-01-30T05:43:39.092Z,6.65
2018-01-30T05:44:38.984Z,6.62
2018-01-30T05:45:39.175Z,6.62
2018-01-30T05:46:38.990Z,6.63
2018-01-30T05:47:38.969Z,6.63
2018-01-30T05:48:39.039Z,6.61
2018-01-30T05:49:39.130Z,6.6
2018-01-30T05:50:39.026Z,6.59
2018-01-30T05:51:39.064Z,6.56
2018-01-30T05:52:39.039Z,6.57
2018-01-30T05:53:39.112Z,6.54
2018-01-30T05:54:39.134Z,6.56
2018-01-30T05:55:39.008Z,6.54
2018-01-30T05:56:39.077Z,6.54
2018-01-30T05:57:39.136Z,6.55
2018-01-30T05:58:39.132Z,6.55
2018-01-30T05:59:38.975Z,6.53
2018-01-30T06:00:39.053Z,6.52
2018-01-30T06:01:39.197Z,6.54
2018-01-30T06:02:38.997Z,6.56
2018-01-30T06:03:38.992Z,6.53
2018-01-30T06:04:38.987Z,6.55
2018-01-30T06:05:39.058Z,6.53
2018-01-30T06:06:39.055Z,6.54
2018-01-30T06:08:39.154Z,6.53
2018-01-30T06:09:39.328Z,6.52
2018-01-30T06:10:39.243Z,6.55
2018-01-30T06:11:39.200Z,6.53
2018-01-30T06:12:39.204Z,6.51
2018-01-30T06:13:39.143Z,6.52
2018-01-30T06:14:39.235Z,6.51
2018-01-30T06:15:39.134Z,6.5
2018-01-30T06:16:39.060Z,6.51
2018-01-30T06:17:39.010Z,6.5
2018-01-30T06:18:39.108Z,6.47
2018-01-30T06:19:39.020Z,6.48
2018-01-30T06:20:39.087Z,6.49
2018-01-30T06:21:39.107Z,6.48
2018-01-30T06:22:39.055Z,6.5
2018-01-30T06:23:39.108Z,6.49
2018-01-30T06:24:39.066Z,6.47
2018-01-30T06:25:39.033Z,6.49
2018-01-30T06:26:39.167Z,6.48
2018-01-30T06:27:39.138Z,6.47
2018-01-30T06:28:39.120Z,6.47
2018-01-30T06:29:39.083Z,6.45
2018-01-30T06:30:39.172Z,6.44
2018-01-30T06:31:39.133Z,6.42
2018-01-30T06:32:39.005Z,6.44
2018-01-30T06:33:39.013Z,6.41
2018-01-30T06:34:39.114Z,6.44
2018-01-30T06:35:39.159Z,6.43
2018-01-30T06:36:39.166Z,6.43
2018-01-30T06:37:39.291Z,6.4
2018-01-30T06:38:39.003Z,6.4
2018-01-30T06:39:39.010Z,6.41
2018-01-30T06:40:39.367Z,6.41
2018-01-30T06:41:39.198Z,6.39
2018-01-30T06:42:39.168Z,6.36
2018-01-30T06:43:39.185Z,6.37
2018-01-30T06:44:39.214Z,6.35
2018-01-30T06:45:39.334Z,6.34
2018-01-30T06:46:39.078Z,6.37
2018-01-30T06:47:39.191Z,6.36
2018-01-30T06:48:39.014Z,6.36
2018-01-30T06:49:39.179Z,6.36
2018-01-30T06:50:39.093Z,6.37
2018-01-30T06:51:39.040Z,6.36
2018-01-30T06:52:39.076Z,6.34
2018-01-30T06:53:39.104Z,6.36
2018-01-30T06:54:39.126Z,6.36
2018-01-30T06:55:39.229Z,6.31
2018-01-30T06:56:39.079Z,6.3
2018-01-30T06:57:39.004Z,6.29
2018-01-30T06:58:39.296Z,6.29
2018-01-30T06:59:39.149Z,6.29
2018-01-30T07:00:39.401Z,6.25
2018-01-30T07:01:39.158Z,6.23
2018-01-30T07:02:39.084Z,6.26
2018-01-30T07:03:38.990Z,6.27
2018-01-30T07:04:39.209Z,6.24
2018-01-30T07:05:39.197Z,6.23
2018-01-30T07:06:39.232Z,6.24
2018-01-30T07:07:39.054Z,6.26
2018-01-30T07:08:39.163Z,6.25
2018-01-30T07:09:39.238Z,6.26
2018-01-30T07:10:39.222Z,6.25
2018-01-30T07:11:39.204Z,6.24
2018-01-30T07:12:39.222Z,6.25
2018-01-30T07:13:39.148Z,6.22
2018-01-30T07:14:39.096Z,6.25
2018-01-30T07:15:39.091Z,6.23
2018-01-30T07:16:39.065Z,6.21
2018-01-30T07:17:39.267Z,6.24
2018-01-30T07:18:39.206Z,6.23
2018-01-30T07:19:39.221Z,6.27
2018-01-30T07:20:39.095Z,6.24
2018-01-30T07:21:39.122Z,6.25
2018-01-30T07:22:39.216Z,6.23
2018-01-30T07:23:39.081Z,6.22
2018-01-30T07:24:39.121Z,6.23
2018-01-30T07:25:39.161Z,6.21
2018-01-30T07:26:39.206Z,6.19
2018-01-30T07:27:39.119Z,6.17
2018-01-30T07:28:39.067Z,6.17
2018-01-30T07:29:39.114Z,6.17
2018-01-30T07:30:39.183Z,6.16
2018-01-30T07:31:39.111Z,6.15
2018-01-30T07:32:39.181Z,6.17
2018-01-30T07:33:39.112Z,6.17
2018-01-30T07:34:39.405Z,6.18
2018-01-30T07:35:39.121Z,6.15
2018-01-30T07:36:39.122Z,6.18
2018-01-30T07:37:39.098Z,6.18
2018-01-30T07:38:39.223Z,6.15
2018-01-30T07:39:39.213Z,6.13
2018-01-30T07:40:39.186Z,6.17
2018-01-30T07:41:39.091Z,6.15
2018-01-30T07:42:39.238Z,6.2
2018-01-30T07:43:39.258Z,6.19
2018-01-30T07:44:39.192Z,6.21
2018-01-30T07:45:39.201Z,6.19
2018-01-30T07:46:39.088Z,6.23
2018-01-30T07:47:39.122Z,6.19
2018-01-30T07:48:39.245Z,6.21
2018-01-30T07:49:39.228Z,6.19
2018-01-30T07:50:39.187Z,6.21
2018-01-30T07:51:39.742Z,6.23
2018-01-30T07:52:39.207Z,6.23
2018-01-30T07:53:39.198Z,6.23
2018-01-30T07:54:39.370Z,6.2
2018-01-30T07:55:39.240Z,6.2
2018-01-30T07:56:39.279Z,6.19
2018-01-30T07:57:39.318Z,6.22
2018-01-30T07:58:39.234Z,6.24
2018-01-30T07:59:39.332Z,6.22
2018-01-30T08:00:39.237Z,6.26
2018-01-30T08:01:39.291Z,6.25
2018-01-30T08:02:39.284Z,6.28
2018-01-30T08:03:39.096Z,6.23
2018-01-30T08:04:39.161Z,6.25
2018-01-30T08:05:39.244Z,6.25
2018-01-30T08:06:39.260Z,6.26
2018-01-30T08:07:39.453Z,6.28
2018-01-30T08:08:39.154Z,6.26
2018-01-30T08:09:39.313Z,6.25
2018-01-30T08:10:39.332Z,6.27
2018-01-30T08:11:39.260Z,6.25
2018-01-30T08:12:40.095Z,6.29
2018-01-30T08:13:39.178Z,6.27
2018-01-30T08:14:39.269Z,6.29
2018-01-30T08:15:39.355Z,6.3
2018-01-30T08:16:39.344Z,6.33
2018-01-30T08:17:39.168Z,6.36
2018-01-30T08:18:39.269Z,6.36
2018-01-30T08:19:39.399Z,6.32
2018-01-30T08:20:39.258Z,6.34
2018-01-30T08:21:39.230Z,6.33
2018-01-30T08:22:39.324Z,6.33
2018-01-30T08:23:39.115Z,6.33
2018-01-30T08:24:39.180Z,6.37
2018-01-30T08:25:39.301Z,6.37
2018-01-30T08:26:39.872Z,6.37
2018-01-30T08:27:39.263Z,6.41
2018-01-30T08:28:39.234Z,6.36
2018-01-30T08:29:39.186Z,6.41
2018-01-30T08:30:39.285Z,6.42
2018-01-30T08:31:39.126Z,6.43
2018-01-30T08:32:39.337Z,6.41
2018-01-30T08:33:39.294Z,6.46
2018-01-30T08:34:39.278Z,6.44
2018-01-30T08:35:39.255Z,6.44
2018-01-30T08:36:39.262Z,6.48
2018-01-30T08:37:39.300Z,6.49
2018-01-30T08:38:39.120Z,6.44
2018-01-30T08:39:39.122Z,6.41
2018-01-30T08:40:39.329Z,6.42
2018-01-30T08:41:39.082Z,6.45
2018-01-30T08:42:39.334Z,6.48
2018-01-30T08:43:39.226Z,6.46
2018-01-30T08:44:39.100Z,6.47
2018-01-30T08:45:39.230Z,6.49
2018-01-30T08:46:39.214Z,6.46
2018-01-30T08:47:39.116Z,6.43
2018-01-30T08:48:39.206Z,6.42
2018-01-30T08:49:39.197Z,6.47
2018-01-30T08:50:39.174Z,6.44
2018-01-30T08:51:39.213Z,6.45
2018-01-30T08:52:39.146Z,6.45
2018-01-30T08:53:39.112Z,6.45
2018-01-30T08:54:39.172Z,6.49
2018-01-30T08:55:39.266Z,6.48
2018-01-30T08:56:39.304Z,6.49
2018-01-30T08:57:39.272Z,6.49
2018-01-30T08:58:39.068Z,6.48
2018-01-30T08:59:39.051Z,6.46
2018-01-30T09:00:39.188Z,6.47
2018-01-30T09:01:39.416Z,6.46
2018-01-30T09:02:39.107Z,6.45
2018-01-30T09:03:39.114Z,6.47
2018-01-30T09:04:39.156Z,6.5
2018-01-30T09:05:39.225Z,6.49
2018-01-30T09:06:39.242Z,6.5
2018-01-30T09:07:39.653Z,6.51
2018-01-30T09:08:39.338Z,6.5
2018-01-30T09:09:39.151Z,6.5
2018-01-30T09:10:39.292Z,6.51
2018-01-30T09:11:38.327Z,6.5
2018-01-30T09:12:38.210Z,6.39
2018-01-30T09:13:38.627Z,6.44
2018-01-30T09:14:38.244Z,6.48
2018-01-30T09:15:38.260Z,6.45
2018-01-30T09:16:38.156Z,6.42
2018-01-30T09:17:38.284Z,6.42
2018-01-30T09:18:38.422Z,6.39
2018-01-30T09:19:38.264Z,6.38
2018-01-30T09:20:38.298Z,6.41
2018-01-30T09:21:39.239Z,6.38
2018-01-30T09:22:38.316Z,6.38
2018-01-30T09:23:38.260Z,6.4
2018-01-30T09:24:38.282Z,6.4
2018-01-30T09:25:38.313Z,6.38
2018-01-30T09:26:38.352Z,6.41
2018-01-30T09:27:38.332Z,6.43
2018-01-30T09:28:38.452Z,6.43
2018-01-30T09:29:38.379Z,6.45
2018-01-30T09:30:38.197Z,6.5
2018-01-30T09:31:38.264Z,6.48
2018-01-30T09:32:39.137Z,6.52
2018-01-30T09:33:38.579Z,6.52
2018-01-30T09:34:38.316Z,6.52
2018-01-30T09:35:38.250Z,6.46
2018-01-30T09:36:38.332Z,6.46
2018-01-30T09:37:38.336Z,6.49
2018-01-30T09:38:38.280Z,6.5
2018-01-30T09:39:38.293Z,6.52
2018-01-30T09:40:38.453Z,6.55
2018-01-30T09:41:38.507Z,6.57
2018-01-30T09:42:38.482Z,6.57
2018-01-30T09:43:38.442Z,6.61
2018-01-30T09:44:38.479Z,6.56
2018-01-30T09:45:38.555Z,6.6
2018-01-30T09:46:38.471Z,6.59
2018-01-30T09:47:38.374Z,6.58
2018-01-30T09:48:38.406Z,6.58
2018-01-30T09:49:38.479Z,6.58
2018-01-30T09:50:38.959Z,6.6
2018-01-30T09:51:38.481Z,6.58
2018-01-30T09:52:38.462Z,6.61
2018-01-30T09:53:38.503Z,6.53
2018-01-30T09:54:38.592Z,6.57
2018-01-30T09:55:38.679Z,6.57
2018-01-30T09:56:38.324Z,6.61
2018-01-30T09:57:38.329Z,6.62
2018-01-30T09:58:38.491Z,6.66
2018-01-30T09:59:38.498Z,6.61
2018-01-30T10:00:39.860Z,6.59
2018-01-30T10:01:38.539Z,6.55
2018-01-30T10:02:38.429Z,6.57
2018-01-30T10:03:39.045Z,6.54
2018-01-30T10:04:38.456Z,6.58
2018-01-30T10:05:38.290Z,6.64
2018-01-30T10:06:38.596Z,6.63
2018-01-30T10:07:38.326Z,6.62
2018-01-30T10:08:38.659Z,6.58
2018-01-30T10:09:38.331Z,6.56
2018-01-30T10:10:38.340Z,6.61
2018-01-30T10:11:38.656Z,6.54
2018-01-30T10:12:38.513Z,6.52
2018-01-30T10:13:38.482Z,6.51
2018-01-30T10:14:38.922Z,6.46
2018-01-30T10:15:38.620Z,6.47
2018-01-30T10:16:38.613Z,6.34
2018-01-30T10:17:38.475Z,6.44
2018-01-30T10:18:38.674Z,6.41
2018-01-30T10:19:38.979Z,6.3
2018-01-30T10:20:38.949Z,6.3
2018-01-30T10:21:38.622Z,6.43
2018-01-30T10:22:38.501Z,6.47
2018-01-30T10:23:38.663Z,6.45
2018-01-30T10:24:38.515Z,6.53
2018-01-30T10:25:38.807Z,6.54
2018-01-30T10:26:38.466Z,6.6
2018-01-30T10:27:38.619Z,6.54
2018-01-30T10:28:38.841Z,6.57
2018-01-30T10:29:39.710Z,6.56
2018-01-30T10:30:40.521Z,6.4
2018-01-30T10:31:40.283Z,6.56
2018-01-30T10:32:39.524Z,6.53
2018-01-30T10:33:38.799Z,6.44
2018-01-30T10:34:38.891Z,6.54
2018-01-30T10:35:38.592Z,6.48
2018-01-30T10:36:39.642Z,6.58
2018-01-30T10:37:39.259Z,6.57
2018-01-30T10:38:39.257Z,6.54
2018-01-30T10:39:39.782Z,6.58
2018-01-30T10:40:38.604Z,6.56
2018-01-30T10:41:39.148Z,6.55
2018-01-30T10:42:40.194Z,6.54
2018-01-30T10:43:39.195Z,6.55
2018-01-30T10:44:39.520Z,6.51
2018-01-30T10:45:38.887Z,6.48
2018-01-30T10:46:38.852Z,6.55
2018-01-30T10:47:38.828Z,6.59
2018-01-30T10:48:38.816Z,6.49
2018-01-30T10:49:39.431Z,6.54
2018-01-30T10:50:38.949Z,6.56
2018-01-30T10:51:39.041Z,6.44
2018-01-30T10:52:39.167Z,6.48
2018-01-30T10:53:38.898Z,6.59
2018-01-30T10:54:38.987Z,6.53
2018-01-30T10:55:40.059Z,6.54
2018-01-30T10:56:39.713Z,6.46
2018-01-30T10:57:38.964Z,6.45
2018-01-30T10:58:38.873Z,6.45
2018-01-30T10:59:38.880Z,6.37
2018-01-30T11:00:38.916Z,6.34
2018-01-30T11:01:39.881Z,6.4
2018-01-30T11:02:38.911Z,6.45
2018-01-30T11:03:38.949Z,6.45
2018-01-30T11:04:38.910Z,6.44
2018-01-30T11:05:38.995Z,6.47
2018-01-30T11:06:39.571Z,6.49
2018-01-30T11:07:38.858Z,6.57
2018-01-30T11:08:39.070Z,6.48
2018-01-30T11:09:39.635Z,6.39
2018-01-30T11:10:38.888Z,6.34
2018-01-30T11:11:39.433Z,6.36
2018-01-30T11:12:39.595Z,6.35
2018-01-30T11:13:38.873Z,6.34
2018-01-30T11:14:39.042Z,6.38
2018-01-30T11:15:39.052Z,6.41
2018-01-30T11:16:40.150Z,6.38
2018-01-30T11:17:38.964Z,6.29
2018-01-30T11:18:39.222Z,6.35
2018-01-30T11:19:39.001Z,6.45
2018-01-30T11:20:38.868Z,6.49
2018-01-30T11:21:38.833Z,6.41
2018-01-30T11:22:39.052Z,6.35
2018-01-30T11:23:39.028Z,6.35
2018-01-30T11:24:38.922Z,6.21
2018-01-30T11:25:39.019Z,6.22
2018-01-30T11:26:38.999Z,6.31
2018-01-30T11:27:39.158Z,6.28
2018-01-30T11:28:38.884Z,6.39
2018-01-30T11:29:38.864Z,6.4
2018-01-30T11:30:38.781Z,6.48
2018-01-30T11:31:38.981Z,6.49
2018-01-30T11:32:39.070Z,6.44
2018-01-30T11:33:38.821Z,6.46
2018-01-30T11:34:38.909Z,6.48
2018-01-30T11:35:39.013Z,6.48
2018-01-30T11:36:38.824Z,6.49
2018-01-30T11:37:38.973Z,6.53
2018-01-30T11:38:38.899Z,6.55
2018-01-30T11:39:38.871Z,6.55
2018-01-30T11:40:38.980Z,6.54
2018-01-30T11:41:39.675Z,6.5
2018-01-30T11:42:38.777Z,6.56
2018-01-30T11:43:38.605Z,6.54
2018-01-30T11:44:38.724Z,6.58
2018-01-30T11:45:38.593Z,6.5
2018-01-30T11:46:38.714Z,6.41
2018-01-30T11:47:38.516Z,6.48
2018-01-30T11:48:38.728Z,6.57
2018-01-30T11:49:38.722Z,6.61
2018-01-30T11:50:38.715Z,6.6
2018-01-30T11:51:38.503Z,6.62
2018-01-30T11:52:38.458Z,6.65
2018-01-30T11:53:38.658Z,6.65
2018-01-30T11:54:38.638Z,6.65
2018-01-30T11:55:38.553Z,6.65
2018-01-30T11:56:38.574Z,6.51
2018-01-30T11:57:38.555Z,6.52
2018-01-30T11:58:38.648Z,6.49
2018-01-30T11:59:39.142Z,6.5
2018-01-30T12:00:38.689Z,6.62
2018-01-30T12:01:38.727Z,6.61
2018-01-30T12:02:38.708Z,6.55
2018-01-30T12:03:38.763Z,6.65
2018-01-30T12:04:38.951Z,6.56
2018-01-30T12:05:38.790Z,6.54
2018-01-30T12:06:38.656Z,6.61
2018-01-30T12:07:38.596Z,6.58
2018-01-30T12:08:38.644Z,6.62
2018-01-30T12:09:38.585Z,6.57
2018-01-30T12:10:38.731Z,6.5
2018-01-30T12:11:38.710Z,6.56
2018-01-30T12:12:38.968Z,6.69
2018-01-30T12:13:38.873Z,6.63
2018-01-30T12:14:38.902Z,6.63
2018-01-30T12:15:38.776Z,6.67
2018-01-30T12:16:38.694Z,6.54
2018-01-30T12:17:38.741Z,6.5
2018-01-30T12:18:38.776Z,6.53
2018-01-30T12:19:38.718Z,6.67
2018-01-30T12:20:38.801Z,6.67
2018-01-30T12:21:38.748Z,6.68
2018-01-30T12:22:38.763Z,6.56
2018-01-30T12:23:38.848Z,6.58
2018-01-30T12:24:38.845Z,6.57
2018-01-30T12:25:38.861Z,6.51
2018-01-30T12:26:38.805Z,6.57
2018-01-30T12:27:38.810Z,6.57
2018-01-30T12:28:38.764Z,6.61
2018-01-30T12:29:38.767Z,6.6
2018-01-30T12:30:38.797Z,6.57
2018-01-30T12:31:38.703Z,6.59
2018-01-30T12:32:38.908Z,6.61
2018-01-30T12:33:39.328Z,6.53
2018-01-30T12:34:38.899Z,6.66
2018-01-30T12:35:38.907Z,6.67
2018-01-30T12:36:38.950Z,6.72
2018-01-30T12:37:39.200Z,6.73
2018-01-30T12:38:38.694Z,6.73
2018-01-30T12:39:38.874Z,6.68
2018-01-30T12:40:38.736Z,6.77
2018-01-30T12:41:39.020Z,6.73
2018-01-30T12:42:39.220Z,6.75
2018-01-30T12:43:38.754Z,6.7
2018-01-30T12:44:38.916Z,6.81
2018-01-30T12:45:38.948Z,6.74
2018-01-30T12:46:38.891Z,6.65
2018-01-30T12:47:39.011Z,6.62
2018-01-30T12:48:38.789Z,6.72
2018-01-30T12:49:38.795Z,6.76
2018-01-30T12:50:38.918Z,6.8
2018-01-30T12:51:38.876Z,6.83
2018-01-30T12:52:38.757Z,6.78
2018-01-30T12:53:38.951Z,6.76
2018-01-30T12:54:38.779Z,6.63
2018-01-30T12:55:38.754Z,6.74
2018-01-30T12:56:38.895Z,6.73
2018-01-30T12:57:38.736Z,6.83
2018-01-30T12:58:38.862Z,6.8
2018-01-30T12:59:38.924Z,6.75
2018-01-30T13:00:38.840Z,6.85
2018-01-30T13:01:39.514Z,6.8
2018-01-30T13:02:38.793Z,6.74
2018-01-30T13:03:38.954Z,6.59
2018-01-30T13:04:38.923Z,6.66
2018-01-30T13:05:38.694Z,6.75
2018-01-30T13:06:38.766Z,6.76
2018-01-30T13:07:38.672Z,6.76
2018-01-30T13:08:38.926Z,6.77
2018-01-30T13:09:38.904Z,6.84
2018-01-30T13:10:38.745Z,6.81
2018-01-30T13:11:38.710Z,6.78
2018-01-30T13:12:39.072Z,6.86
2018-01-30T13:13:39.072Z,6.76
2018-01-30T13:14:38.906Z,6.65
2018-01-30T13:15:39.125Z,6.61
2018-01-30T13:16:39.042Z,6.61
2018-01-30T13:17:39.095Z,6.66
2018-01-30T13:18:39.274Z,6.69
2018-01-30T13:19:39.028Z,6.76
2018-01-30T13:20:39.120Z,6.81
2018-01-30T13:21:39.003Z,6.78
2018-01-30T13:22:39.102Z,6.8
2018-01-30T13:23:39.018Z,6.8
2018-01-30T13:24:39.152Z,6.83